createdAt,value
2023-05-07T07:03:27.555Z,18.45
2023-05-07T07:06:35.520Z,18.55
2023-05-07T07:09:22.058Z,18.10
2023-05-07T07:20:53.504Z,22.40
2023-05-07T07:23:40.996Z,21.05
2023-05-07T07:33:33.862Z,23.02
2023-05-07T07:36:16.859Z,20.98
2023-05-07T07:47:46.939Z,21.25
2023-05-07T07:56:11.661Z,23.15
2023-05-07T07:58:48.457Z,24.70
2023-05-07T08:01:31.483Z,23.65
2023-05-07T08:04:23.520Z,22.58
2023-05-07T08:06:58.396Z,22.58
2023-05-07T08:09:30.546Z,24.02
2023-05-07T08:12:00.787Z,22.25
2023-05-07T08:14:31.802Z,25.23
2023-05-07T08:17:01.743Z,21.63
2023-05-07T08:19:31.565Z,22.35
2023-05-07T08:22:01.291Z,24.98
2023-05-07T08:24:31.670Z,25.13
2023-05-07T08:27:03.657Z,22.08
2023-05-07T08:29:33.486Z,22.00
2023-05-07T08:32:03.314Z,23.25
2023-05-07T08:34:32.983Z,23.50
2023-05-07T08:37:04.631Z,23.38
2023-05-07T08:39:34.625Z,22.38
2023-05-07T08:42:06.581Z,24.65
2023-05-07T08:44:40.481Z,25.02
2023-05-07T08:47:11.299Z,23.48
2023-05-07T08:49:45.847Z,25.73
2023-05-07T08:52:16.265Z,24.73
2023-05-07T08:54:46.448Z,24.98
2023-05-07T08:57:16.267Z,25.38
2023-05-07T08:59:46.013Z,25.95
2023-05-07T09:02:15.891Z,24.77
2023-05-07T09:04:46.547Z,25.70
2023-05-07T09:07:16.370Z,24.55
2023-05-07T09:09:51.079Z,23.65
2023-05-07T09:12:21.710Z,26.35
2023-05-07T09:14:55.783Z,23.65
2023-05-07T09:17:25.896Z,25.70
2023-05-07T09:20:02.484Z,26.05
2023-05-07T09:22:36.510Z,25.38
2023-05-07T09:25:07.505Z,27.67
2023-05-07T09:27:42.214Z,28.60
2023-05-07T09:30:22.249Z,28.40
2023-05-07T09:32:52.443Z,29.88
2023-05-07T09:35:24.828Z,25.95
2023-05-07T09:37:57.563Z,29.92
2023-05-07T09:40:32.409Z,29.60
2023-05-07T09:43:18.883Z,28.15
2023-05-07T09:45:53.897Z,30.10
2023-05-07T09:48:24.668Z,30.15
2023-05-07T09:51:00.770Z,30.92
2023-05-07T09:53:32.519Z,29.50
2023-05-07T09:56:04.471Z,28.98
2023-05-07T09:58:40.245Z,35.95
2023-05-07T10:01:12.885Z,30.75
2023-05-07T10:03:48.578Z,28.83
2023-05-07T10:06:19.384Z,26.17
2023-05-07T10:08:51.329Z,27.42
2023-05-07T10:11:23.235Z,27.05
2023-05-07T10:13:55.335Z,26.08
2023-05-07T10:16:26.540Z,26.55
2023-05-07T10:18:57.649Z,25.05
2023-05-07T10:21:29.235Z,22.13
2023-05-07T10:24:20.123Z,22.90
2023-05-07T10:26:54.219Z,22.42
2023-05-07T10:29:48.377Z,21.67
2023-05-07T10:32:36.882Z,23.52
2023-05-07T10:35:13.437Z,23.50
2023-05-07T10:37:44.498Z,23.27
2023-05-07T10:40:17.912Z,24.08
2023-05-07T10:43:09.484Z,23.27
2023-05-07T10:45:40.744Z,23.10
2023-05-07T10:50:51.159Z,25.55
2023-05-07T10:53:21.335Z,23.35
2023-05-07T10:55:56.397Z,24.27
2023-05-07T10:58:32.456Z,25.42
2023-05-07T11:01:05.687Z,26.55
2023-05-07T11:03:35.811Z,25.77
2023-05-07T11:06:14.144Z,25.98
2023-05-07T11:08:56.517Z,26.75
2023-05-07T11:11:48.201Z,26.27
2023-05-07T11:14:40.120Z,27.52
2023-05-07T11:17:10.569Z,27.60
2023-05-07T11:19:59.758Z,28.67
2023-05-07T11:22:42.322Z,28.65
2023-05-07T11:25:12.551Z,29.25
2023-05-07T11:27:44.255Z,27.85
2023-05-07T11:30:21.199Z,29.58
2023-05-07T11:32:52.023Z,29.75
2023-05-07T11:35:27.360Z,29.98
2023-05-07T11:38:03.044Z,22.63
2023-05-07T11:40:33.306Z,24.15
2023-05-07T11:43:13.205Z,22.15
2023-05-07T11:45:44.107Z,21.65
2023-05-07T11:48:18.363Z,19.60
2023-05-07T11:51:04.506Z,20.08
2023-05-07T11:53:42.863Z,17.80
2023-05-07T11:56:15.117Z,19.55
2023-05-07T11:58:45.934Z,21.15
2023-05-07T12:01:20.167Z,21.70
2023-05-07T12:03:50.599Z,20.77
2023-05-07T12:06:21.254Z,20.13
2023-05-07T12:08:51.168Z,19.05
2023-05-07T12:13:59.893Z,17.90
2023-05-07T12:16:30.901Z,19.75
2023-05-07T12:19:02.179Z,18.63
2023-05-07T12:21:32.578Z,20.17
2023-05-07T12:24:02.791Z,17.00
2023-05-07T12:26:32.844Z,16.63
2023-05-07T12:29:02.871Z,20.80
2023-05-07T12:31:33.537Z,20.90
2023-05-07T12:34:04.980Z,19.20
2023-05-07T12:36:44.411Z,18.17
2023-05-07T12:39:14.384Z,18.70
2023-05-07T12:44:39.157Z,17.85
2023-05-07T12:47:09.095Z,16.95
2023-05-07T12:52:11.684Z,17.00
2023-05-07T12:54:42.433Z,16.83
2023-05-07T12:57:13.464Z,17.60
2023-05-07T12:59:45.615Z,18.85
2023-05-07T13:02:15.962Z,16.75
2023-05-07T13:04:47.830Z,17.52
2023-05-07T13:07:17.952Z,17.10
2023-05-07T13:09:48.096Z,17.63
2023-05-07T13:12:19.566Z,17.83
2023-05-07T13:14:49.546Z,17.30
2023-05-07T13:19:49.399Z,15.45
2023-05-07T13:22:19.750Z,17.08
2023-05-07T13:24:50.226Z,18.73
2023-05-07T13:27:22.736Z,17.13
2023-05-07T13:29:53.271Z,16.52
2023-05-07T13:32:23.769Z,16.42
2023-05-07T13:34:53.617Z,17.30
2023-05-07T13:37:23.652Z,17.33
2023-05-07T13:44:53.414Z,17.97
2023-05-07T13:47:24.737Z,17.17
2023-05-07T13:49:55.193Z,18.70
2023-05-07T13:52:27.234Z,19.60
2023-05-07T13:54:59.149Z,17.65
2023-05-07T13:57:29.478Z,18.17
2023-05-07T13:59:59.442Z,18.23
2023-05-07T14:04:59.254Z,19.75
2023-05-07T14:07:30.444Z,17.33
2023-05-07T14:10:01.169Z,23.00
2023-05-07T14:12:31.277Z,25.30
2023-05-07T14:15:02.279Z,27.70
2023-05-07T14:17:32.654Z,41.70
2023-05-07T14:20:03.006Z,96.35
2023-05-07T14:22:33.266Z,328.80
2023-05-07T14:25:06.755Z,168.82
2023-05-07T14:27:37.883Z,225.55
2023-05-07T14:30:08.688Z,102.07
2023-05-07T14:32:39.234Z,55.08
2023-05-07T14:35:10.173Z,35.05
2023-05-07T14:37:40.330Z,20.92
2023-05-07T14:40:12.093Z,18.17
2023-05-07T14:42:42.614Z,19.05
2023-05-07T14:45:13.699Z,19.00
2023-05-07T14:47:45.218Z,19.10
2023-05-07T14:50:17.000Z,18.20
2023-05-07T14:52:47.398Z,19.10
2023-05-07T14:55:17.754Z,19.42
2023-05-07T14:57:48.305Z,18.77
2023-05-07T15:00:19.673Z,19.20
2023-05-07T15:02:50.248Z,22.05
2023-05-07T15:05:21.968Z,20.08
2023-05-07T15:07:53.324Z,21.92
2023-05-07T15:10:23.458Z,22.38
2023-05-07T15:12:53.858Z,19.65
2023-05-07T15:15:24.276Z,20.10
2023-05-07T15:17:54.540Z,22.52
2023-05-07T15:20:24.936Z,21.73
2023-05-07T15:22:56.385Z,22.48
2023-05-07T15:25:27.176Z,22.67
2023-05-07T15:27:57.337Z,22.05
2023-05-07T15:30:27.734Z,23.90
2023-05-07T15:32:58.243Z,26.83
2023-05-07T15:35:28.957Z,27.08
2023-05-07T15:38:00.637Z,27.65
2023-05-07T15:40:31.098Z,29.25
2023-05-07T15:43:01.039Z,27.85
2023-05-07T15:45:33.467Z,27.00
2023-05-07T15:48:03.667Z,28.65
2023-05-07T15:50:34.555Z,28.75
2023-05-07T15:53:05.738Z,28.30
2023-05-07T15:55:37.715Z,27.50
2023-05-07T15:58:10.613Z,31.05
2023-05-07T16:00:42.895Z,31.63
2023-05-07T16:03:14.212Z,30.70
2023-05-07T16:05:46.243Z,30.52
2023-05-07T16:08:16.913Z,27.17
2023-05-07T16:10:47.308Z,29.90
2023-05-07T16:13:20.986Z,30.20
2023-05-07T16:15:51.750Z,28.42
2023-05-07T16:18:21.801Z,29.42
2023-05-07T16:23:23.946Z,35.53
2023-05-07T16:25:54.339Z,31.30
2023-05-07T16:28:27.366Z,30.98
2023-05-07T16:30:57.395Z,40.53
2023-05-07T16:35:57.254Z,38.63
2023-05-07T16:38:28.739Z,38.63
2023-05-07T16:40:59.226Z,39.50
2023-05-07T16:43:28.968Z,41.60
2023-05-07T16:45:59.014Z,44.78
2023-05-07T16:51:00.181Z,38.25
2023-05-07T16:53:30.311Z,40.65
2023-05-07T16:58:30.651Z,38.38
2023-05-07T17:01:04.002Z,38.10
2023-05-07T17:03:34.554Z,39.17
2023-05-07T17:06:05.124Z,36.30
2023-05-07T17:08:34.969Z,40.65
2023-05-07T17:11:05.220Z,40.15
2023-05-07T17:13:35.875Z,40.30
2023-05-07T17:16:06.684Z,42.65
2023-05-07T17:18:37.715Z,42.15
2023-05-07T17:21:08.347Z,40.17
2023-05-07T17:23:38.760Z,42.55
2023-05-07T17:26:16.011Z,40.22
2023-05-07T17:28:46.427Z,41.50
2023-05-07T17:31:16.370Z,39.08
2023-05-07T17:33:46.798Z,40.10
2023-05-07T17:36:17.528Z,41.85
2023-05-07T17:38:48.634Z,38.38
2023-05-07T17:41:19.118Z,40.15
2023-05-07T17:43:48.985Z,38.50
2023-05-07T17:46:19.930Z,38.85
2023-05-07T17:48:51.035Z,38.03
2023-05-07T17:51:21.133Z,38.97
2023-05-07T17:56:21.784Z,40.45
2023-05-07T18:01:29.709Z,38.78
2023-05-07T18:04:00.235Z,38.20
2023-05-07T18:06:30.186Z,37.35
2023-05-07T18:09:00.043Z,38.47
2023-05-07T18:11:34.297Z,35.55
2023-05-07T18:14:04.958Z,34.67
2023-05-07T18:16:35.007Z,35.20
2023-05-07T18:21:34.402Z,36.80
2023-05-07T18:24:04.364Z,35.50
2023-05-07T18:26:34.837Z,36.05
2023-05-07T18:29:04.840Z,37.00
2023-05-07T18:31:36.033Z,40.75
2023-05-07T18:34:08.137Z,34.58
2023-05-07T18:36:38.957Z,36.33
2023-05-07T18:39:10.172Z,37.13
2023-05-07T18:41:40.908Z,34.25
2023-05-07T18:44:11.340Z,37.00
2023-05-07T18:46:41.290Z,37.45
2023-05-07T18:49:12.012Z,38.80
2023-05-07T18:51:42.177Z,37.42
2023-05-07T18:56:44.284Z,35.80
2023-05-07T18:59:16.503Z,39.33
2023-05-07T19:01:47.761Z,37.58
2023-05-07T19:04:19.656Z,36.65
2023-05-07T19:06:50.679Z,40.33
2023-05-07T19:09:20.585Z,39.60
2023-05-07T19:11:50.475Z,38.22
2023-05-07T19:14:20.500Z,37.28
2023-05-07T19:16:52.237Z,35.20
2023-05-07T19:19:22.156Z,36.00
2023-05-07T19:21:52.178Z,34.05
2023-05-07T19:24:23.000Z,36.45
2023-05-07T19:26:52.916Z,37.50
2023-05-07T19:29:22.675Z,39.88
2023-05-07T19:31:52.527Z,38.65
2023-05-07T19:34:22.480Z,37.58
2023-05-07T19:36:52.850Z,36.78
2023-05-07T19:39:22.595Z,36.55
2023-05-07T19:41:52.366Z,36.90
2023-05-07T19:44:22.277Z,36.20
2023-05-07T19:46:52.708Z,34.53
2023-05-07T19:49:23.025Z,35.88
2023-05-07T19:51:52.980Z,34.75
2023-05-07T19:54:24.237Z,35.30
2023-05-07T19:56:54.050Z,32.83
2023-05-07T19:59:27.618Z,35.65
2023-05-07T20:01:57.812Z,37.17
2023-05-07T20:04:32.014Z,35.58
2023-05-07T20:07:02.269Z,38.30
2023-05-07T20:09:32.122Z,36.65
2023-05-07T20:12:02.259Z,41.45
2023-05-07T20:14:32.218Z,41.40
2023-05-07T20:17:02.286Z,35.70
2023-05-07T20:19:32.103Z,33.50
2023-05-07T20:22:01.882Z,33.60
2023-05-07T20:24:31.848Z,29.42
2023-05-07T20:27:01.696Z,24.92
2023-05-07T20:29:31.538Z,28.27
2023-05-07T20:32:02.776Z,25.58
2023-05-07T20:34:34.250Z,23.33
2023-05-07T20:37:05.607Z,21.63
2023-05-07T20:39:35.406Z,26.25
2023-05-07T20:42:05.401Z,26.40
2023-05-07T20:44:39.805Z,23.38
2023-05-07T20:47:09.700Z,23.67
2023-05-07T20:49:39.821Z,25.40
2023-05-07T20:52:09.622Z,28.10
2023-05-07T20:54:41.935Z,27.90
2023-05-07T20:57:11.716Z,34.97
2023-05-07T20:59:42.148Z,34.60
2023-05-07T21:02:13.480Z,32.17
2023-05-07T21:04:44.138Z,33.33
2023-05-07T21:07:14.478Z,33.83
2023-05-07T21:12:14.376Z,33.53
2023-05-07T21:14:44.771Z,31.35
2023-05-07T21:17:14.621Z,34.03
2023-05-07T21:19:44.842Z,35.08
2023-05-07T21:24:43.912Z,35.40
2023-05-07T21:27:13.680Z,34.05
2023-05-07T21:29:43.417Z,32.50
2023-05-07T21:32:14.460Z,36.50
2023-05-07T21:34:44.232Z,34.35
2023-05-07T21:37:15.769Z,36.45
2023-05-07T21:39:46.617Z,37.65
2023-05-07T21:44:45.526Z,35.75
2023-05-07T21:47:15.373Z,33.45
2023-05-07T21:49:45.086Z,30.42
2023-05-07T21:52:18.828Z,30.38
2023-05-07T21:54:48.567Z,29.55
2023-05-07T21:57:18.221Z,29.98
2023-05-07T21:59:47.804Z,28.52
2023-05-07T22:02:17.827Z,27.45
2023-05-07T22:04:47.607Z,27.42
2023-05-07T22:07:19.085Z,29.25
2023-05-07T22:09:49.388Z,28.50
2023-05-07T22:12:19.111Z,28.08
2023-05-07T22:14:49.479Z,27.23
2023-05-07T22:19:48.274Z,29.05
2023-05-07T22:22:18.804Z,29.98
2023-05-07T22:24:48.817Z,31.13
2023-05-07T22:27:18.443Z,27.02
2023-05-07T22:29:48.120Z,30.05
2023-05-07T22:32:17.921Z,29.77
2023-05-07T22:34:47.637Z,30.10
2023-05-07T22:37:17.272Z,30.70
2023-05-07T22:39:46.894Z,29.52
2023-05-07T22:42:16.521Z,28.10
2023-05-07T22:44:46.168Z,29.80
2023-05-07T22:47:15.966Z,29.08
2023-05-07T22:49:46.186Z,29.65
2023-05-07T22:52:15.856Z,33.95
2023-05-07T22:54:45.493Z,35.35
2023-05-07T22:57:15.125Z,38.05
2023-05-07T22:59:45.776Z,36.55
2023-05-07T23:02:16.386Z,40.40
2023-05-07T23:04:46.133Z,38.67
2023-05-07T23:07:15.809Z,38.13
2023-05-07T23:09:45.469Z,43.97
2023-05-07T23:12:15.165Z,43.75
2023-05-07T23:14:44.836Z,41.53
2023-05-07T23:17:14.733Z,42.88
2023-05-07T23:19:44.681Z,40.88
2023-05-07T23:22:14.433Z,43.20
2023-05-07T23:24:44.912Z,45.72
2023-05-07T23:27:14.567Z,44.58
2023-05-07T23:29:44.826Z,44.35
2023-05-07T23:34:43.624Z,42.55
2023-05-07T23:37:13.342Z,48.20
2023-05-07T23:39:42.988Z,41.72
2023-05-07T23:42:12.581Z,44.92
2023-05-07T23:44:42.913Z,39.83
2023-05-07T23:49:41.676Z,36.92
2023-05-07T23:52:12.104Z,36.40
2023-05-07T23:57:11.031Z,31.92
2023-05-07T23:59:40.684Z,34.03
